createdAt,value
2019-02-23T00:04:03.153Z,18.70
2019-02-23T00:08:38.918Z,20.20
2019-02-23T00:13:14.701Z,24.12
2019-02-23T00:17:50.472Z,20.52
2019-02-23T00:22:26.256Z,18.10
2019-02-23T00:27:02.056Z,19.82
2019-02-23T00:31:37.849Z,21.00
2019-02-23T00:36:13.617Z,22.15
2019-02-23T00:40:49.405Z,22.13
2019-02-23T00:45:25.185Z,23.57
2019-02-23T00:50:00.973Z,30.45
2019-02-23T00:54:36.820Z,27.98
2019-02-23T00:59:12.601Z,33.00
2019-02-23T01:03:48.373Z,26.52
2019-02-23T01:08:24.174Z,23.87
2019-02-23T01:12:59.941Z,25.72
2019-02-23T01:17:35.722Z,24.40
2019-02-23T01:22:11.479Z,25.88
2019-02-23T01:26:47.318Z,23.22
2019-02-23T01:31:23.385Z,24.83
2019-02-23T01:35:59.160Z,25.55
2019-02-23T01:40:34.941Z,24.00
2019-02-23T01:45:11.539Z,25.40
2019-02-23T01:49:58.318Z,24.10
2019-02-23T01:54:24.836Z,23.80
2019-02-23T01:59:00.596Z,24.85
2019-02-23T02:03:36.382Z,24.35
2019-02-23T02:08:12.350Z,23.70
2019-02-23T02:12:48.133Z,26.75
2019-02-23T02:17:23.901Z,28.40
2019-02-23T02:21:59.712Z,27.00
2019-02-23T02:26:35.489Z,22.60
2019-02-23T02:31:11.277Z,31.07
2019-02-23T02:35:47.084Z,25.37
2019-02-23T02:40:22.880Z,26.40
2019-02-23T02:44:58.654Z,27.62
2019-02-23T02:49:34.433Z,32.23
2019-02-23T02:54:10.199Z,27.87
2019-02-23T02:58:45.988Z,31.15
2019-02-23T03:03:21.749Z,24.92
2019-02-23T03:07:57.533Z,28.27
2019-02-23T03:12:33.305Z,18.55
2019-02-23T03:17:09.084Z,28.50
2019-02-23T03:21:44.855Z,31.10
2019-02-23T03:26:20.656Z,29.52
2019-02-23T03:30:56.437Z,29.63
2019-02-23T03:35:32.400Z,29.90
2019-02-23T03:40:09.917Z,30.47
2019-02-23T03:44:45.694Z,32.13
2019-02-23T03:49:21.672Z,33.17
2019-02-23T03:53:57.471Z,25.92
2019-02-23T03:58:33.227Z,26.20
2019-02-23T04:03:09.017Z,26.90
2019-02-23T04:07:44.796Z,27.23
2019-02-23T04:12:20.581Z,27.73
2019-02-23T04:16:56.348Z,30.23
2019-02-23T04:21:32.129Z,26.07
2019-02-23T04:26:08.115Z,27.33
2019-02-23T04:30:43.893Z,30.43
2019-02-23T04:35:19.653Z,34.33
2019-02-23T04:39:55.433Z,30.90
2019-02-23T04:44:31.295Z,33.37
2019-02-23T04:49:07.084Z,28.83
2019-02-23T04:53:42.848Z,29.20
2019-02-23T04:58:18.235Z,31.02
2019-02-23T05:02:54.009Z,33.83
2019-02-23T05:07:29.815Z,24.43
2019-02-23T05:12:05.648Z,31.48
2019-02-23T05:16:41.468Z,35.55
2019-02-23T05:21:26.077Z,31.80
2019-02-23T05:25:54.742Z,32.50
2019-02-23T05:30:30.514Z,29.97
2019-02-23T05:35:07.454Z,28.67
2019-02-23T05:39:43.289Z,28.20
2019-02-23T05:44:19.069Z,29.92
2019-02-23T05:48:54.874Z,38.50
2019-02-23T05:53:30.661Z,36.10
2019-02-23T05:58:06.429Z,36.27
2019-02-23T06:02:45.006Z,35.10
2019-02-23T06:07:19.701Z,44.80
2019-02-23T06:11:55.512Z,42.50
2019-02-23T06:16:31.282Z,35.13
2019-02-23T06:21:07.101Z,39.33
2019-02-23T06:25:42.873Z,42.00
2019-02-23T06:30:18.653Z,35.87
2019-02-23T06:34:54.409Z,33.33
2019-02-23T06:39:30.185Z,30.97
2019-02-23T06:44:05.957Z,33.10
2019-02-23T06:48:41.757Z,33.90
2019-02-23T06:53:17.595Z,31.93
2019-02-23T06:57:53.441Z,27.37
2019-02-23T07:02:29.286Z,27.23
2019-02-23T07:07:05.073Z,30.77
2019-02-23T07:11:40.922Z,29.33
2019-02-23T07:16:16.706Z,30.30
2019-02-23T07:20:52.477Z,30.80
2019-02-23T07:25:28.905Z,39.40
2019-02-23T07:30:04.888Z,34.30
2019-02-23T07:34:42.474Z,31.70
2019-02-23T07:39:18.267Z,34.93
2019-02-23T07:43:54.131Z,37.17
2019-02-23T07:48:29.925Z,34.53
2019-02-23T07:53:05.731Z,34.30
2019-02-23T07:57:41.524Z,32.40
2019-02-23T08:02:17.336Z,40.23
2019-02-23T08:06:53.196Z,38.37
2019-02-23T08:11:28.984Z,39.70
2019-02-23T08:16:04.768Z,38.30
2019-02-23T08:20:40.552Z,34.03
2019-02-23T08:25:16.330Z,38.40
2019-02-23T08:29:52.164Z,34.67
2019-02-23T08:34:27.926Z,31.57
2019-02-23T08:39:04.310Z,35.83
2019-02-23T08:43:40.081Z,31.20
2019-02-23T08:48:15.954Z,30.80
2019-02-23T08:52:51.713Z,27.83
2019-02-23T08:57:27.517Z,27.43
2019-02-23T09:02:03.329Z,20.07
2019-02-23T09:06:39.182Z,27.67
2019-02-23T09:11:14.944Z,26.70
2019-02-23T09:15:50.735Z,27.52
2019-02-23T09:20:29.514Z,25.95
2019-02-23T09:25:04.293Z,28.10
2019-02-23T09:29:40.064Z,23.57
2019-02-23T09:34:17.649Z,28.25
2019-02-23T09:38:53.416Z,27.67
2019-02-23T09:43:29.212Z,32.78
2019-02-23T09:48:04.978Z,28.20
2019-02-23T09:52:42.644Z,30.50
2019-02-23T09:57:18.403Z,27.37
2019-02-23T10:01:54.191Z,37.37
2019-02-23T10:06:30.173Z,33.88
2019-02-23T10:11:05.959Z,38.80
2019-02-23T10:15:41.729Z,29.03
2019-02-23T10:20:17.520Z,31.95
2019-02-23T10:24:53.288Z,34.53
2019-02-23T10:29:29.060Z,30.75
2019-02-23T10:34:04.828Z,31.37
2019-02-23T10:38:40.613Z,30.82
2019-02-23T10:43:16.376Z,31.47
2019-02-23T10:47:52.167Z,30.48
2019-02-23T10:52:27.945Z,33.88
2019-02-23T10:57:03.732Z,29.63
2019-02-23T11:01:41.215Z,29.07
2019-02-23T11:06:17.053Z,30.20
2019-02-23T11:10:52.849Z,31.35
2019-02-23T11:15:29.336Z,27.40
2019-02-23T11:20:05.981Z,26.60
2019-02-23T11:24:41.961Z,26.27
2019-02-23T11:29:17.954Z,25.85
2019-02-23T11:33:53.749Z,28.12
2019-02-23T11:38:29.516Z,24.92
2019-02-23T11:43:05.305Z,25.82
2019-02-23T11:47:41.158Z,23.32
2019-02-23T11:52:16.962Z,25.00
2019-02-23T11:56:52.721Z,26.42
2019-02-23T12:01:28.517Z,27.93
2019-02-23T12:06:04.293Z,28.05
2019-02-23T12:10:40.213Z,21.95
2019-02-23T12:15:16.011Z,23.85
2019-02-23T12:19:50.067Z,24.52
2019-02-23T12:24:25.837Z,24.12
2019-02-23T12:29:01.622Z,23.85
2019-02-23T12:33:37.416Z,24.45
2019-02-23T12:38:13.213Z,21.90
2019-02-23T12:42:48.988Z,23.32
2019-02-23T12:47:24.793Z,23.27
2019-02-23T12:52:00.574Z,20.90
2019-02-23T12:56:36.368Z,22.60
2019-02-23T13:01:12.150Z,21.10
2019-02-23T13:05:47.934Z,21.10
2019-02-23T13:10:23.701Z,23.77
2019-02-23T13:15:33.366Z,19.30
2019-02-23T13:20:43.817Z,19.90
2019-02-23T13:25:29.341Z,20.72
2019-02-23T13:30:30.394Z,17.65
2019-02-23T13:35:46.988Z,18.87
2019-02-23T13:41:01.612Z,19.37
2019-02-23T13:46:03.261Z,18.75
2019-02-23T13:50:54.298Z,16.23
2019-02-23T13:56:16.890Z,15.98
2019-02-23T14:01:22.435Z,19.17
2019-02-23T14:06:39.400Z,16.73
2019-02-23T14:11:44.182Z,15.50
2019-02-23T14:21:45.453Z,17.30
2019-02-23T14:26:56.545Z,14.13
2019-02-23T14:36:33.342Z,13.90
2019-02-23T14:41:48.908Z,14.45
2019-02-23T14:47:09.469Z,13.68
2019-02-23T14:57:15.524Z,12.28
2019-02-23T15:02:06.645Z,12.82
2019-02-23T15:07:19.285Z,12.23
2019-02-23T15:12:21.234Z,12.37
2019-02-23T15:17:19.533Z,12.65
2019-02-23T15:22:32.206Z,10.43
2019-02-23T15:27:43.080Z,10.55
2019-02-23T15:32:55.545Z,11.28
2019-02-23T15:38:08.061Z,23.87
2019-02-23T15:52:36.956Z,10.68
2019-02-23T15:57:12.789Z,11.95
2019-02-23T16:01:48.561Z,11.28
2019-02-23T16:06:24.337Z,17.10
2019-02-23T16:11:00.104Z,9.98
2019-02-23T16:15:35.896Z,9.80
2019-02-23T16:20:11.661Z,10.98
2019-02-23T16:24:48.578Z,11.48
2019-02-23T16:29:24.348Z,11.48
2019-02-23T16:34:00.149Z,14.35
2019-02-23T16:38:35.916Z,9.35
2019-02-23T16:43:11.704Z,10.50
2019-02-23T16:47:47.475Z,10.03
2019-02-23T16:52:23.252Z,9.00
2019-02-23T16:56:59.008Z,11.03
2019-02-23T17:01:34.794Z,12.70
2019-02-23T17:06:10.561Z,9.93
2019-02-23T17:10:46.425Z,10.05
2019-02-23T17:15:22.184Z,12.55
2019-02-23T17:19:57.973Z,12.93
2019-02-23T17:24:33.729Z,9.55
2019-02-23T17:29:09.545Z,10.20
2019-02-23T17:33:45.307Z,10.90
2019-02-23T17:38:21.093Z,8.63
2019-02-23T17:42:56.858Z,7.78
2019-02-23T17:47:32.648Z,9.43
2019-02-23T17:52:07.804Z,8.53
2019-02-23T17:56:43.594Z,10.45
2019-02-23T18:01:19.368Z,11.22
2019-02-23T18:05:55.164Z,9.95
2019-02-23T18:10:30.921Z,9.03
2019-02-23T18:15:07.347Z,8.75
2019-02-23T18:19:43.105Z,12.37
2019-02-23T18:24:18.882Z,15.93
2019-02-23T18:28:54.641Z,11.63
2019-02-23T18:33:30.519Z,12.47
2019-02-23T18:38:06.476Z,10.10
2019-02-23T18:42:42.352Z,11.30
2019-02-23T18:47:18.420Z,14.33
2019-02-23T18:51:54.878Z,19.27
2019-02-23T18:56:30.799Z,12.60
2019-02-23T19:01:06.578Z,16.40
2019-02-23T19:05:49.709Z,20.30
2019-02-23T19:10:19.809Z,20.10
2019-02-23T19:14:55.565Z,12.28
2019-02-23T19:19:31.357Z,18.15
2019-02-23T19:24:07.120Z,19.25
2019-02-23T19:28:43.386Z,15.18
2019-02-23T19:33:19.442Z,14.15
2019-02-23T19:37:55.260Z,16.17
2019-02-23T19:42:31.021Z,13.00
2019-02-23T19:47:19.229Z,14.50
2019-02-23T19:51:56.604Z,12.50
2019-02-23T19:56:32.474Z,13.28
2019-02-23T20:01:08.230Z,13.45
2019-02-23T20:05:44.020Z,13.25
2019-02-23T20:10:19.788Z,19.67
2019-02-23T20:14:55.556Z,21.57
2019-02-23T20:19:31.317Z,22.93
2019-02-23T20:24:07.089Z,12.73
2019-02-23T20:28:45.434Z,13.43
2019-02-23T20:33:21.327Z,16.17
2019-02-23T20:37:57.189Z,13.85
2019-02-23T20:42:32.973Z,19.03
2019-02-23T20:47:08.738Z,19.57
2019-02-23T20:51:44.596Z,15.15
2019-02-23T20:56:20.353Z,17.80
2019-02-23T21:00:56.150Z,16.90
2019-02-23T21:05:31.914Z,14.78
2019-02-23T21:10:08.270Z,15.08
2019-02-23T21:14:44.044Z,11.87
2019-02-23T21:19:19.845Z,11.70
2019-02-23T21:23:55.612Z,11.17
2019-02-23T21:28:31.396Z,12.37
2019-02-23T21:33:07.168Z,9.43
2019-02-23T21:37:42.962Z,12.03
2019-02-23T21:42:18.743Z,9.87
2019-02-23T21:46:54.527Z,11.27
2019-02-23T21:51:30.293Z,13.33
2019-02-23T21:56:06.074Z,10.77
2019-02-23T22:00:41.857Z,15.75
2019-02-23T22:05:17.701Z,12.55
2019-02-23T22:09:53.537Z,12.07
2019-02-23T22:14:29.322Z,11.90
2019-02-23T22:19:05.165Z,14.68
2019-02-23T22:23:40.983Z,13.10
2019-02-23T22:28:16.811Z,14.03
2019-02-23T22:32:52.598Z,12.40
2019-02-23T22:37:28.345Z,12.23
2019-02-23T22:42:04.209Z,14.87
2019-02-23T22:46:40.032Z,13.30
2019-02-23T22:51:15.821Z,11.77
2019-02-23T22:55:51.583Z,11.63
2019-02-23T23:00:38.664Z,15.60
2019-02-23T23:05:14.725Z,13.95
2019-02-23T23:09:50.509Z,18.80
2019-02-23T23:14:26.272Z,11.33
2019-02-23T23:19:02.054Z,13.07
2019-02-23T23:23:37.814Z,13.77
2019-02-23T23:28:13.597Z,11.53
2019-02-23T23:32:49.357Z,12.37
2019-02-23T23:37:25.126Z,12.47
2019-02-23T23:42:00.900Z,11.17
2019-02-23T23:46:36.693Z,15.30
2019-02-23T23:51:12.480Z,15.67
2019-02-23T23:55:48.249Z,12.07
